Perry, Louisiana
Current Conditions -  °F | °C
As of 3:50 PM on Thursday 23 Oct 2014 (Local Time) from KIYA Reporting Station
Clear Clear  
Wind Chill: 73°   Ceiling: Unl
Heat Index: 73°   Visibility: 10mi
Dew Point: 50°   Wind: 6mph
Humidity: 45%   Direction: 20°NNE
Pressure: 30.04"   Gusts: NA
Location:  29.95°N, 92.16°W
Report Text: KIYA 232050Z AUTO 02005KT 10SM CLR 23/10 A3004 RMK AO2 T02270101
Loading
Personal Weather Stations






























Interactive Weather Map New forecast layout! Learn more

10-Day Weather Forecast

Advertisements
Track Severe Weather on mobile